sensor_id;sensor_type;location;lat;lon;timestamp;P1;durP1;ratioP1;P2;durP2;ratioP2
944;SDS011;459;48.676;9.034;2023-07-20T00:00:33;2.60;;;2.20;;
944;SDS011;459;48.676;9.034;2023-07-20T00:03:10;3.73;;;3.43;;
944;SDS011;459;48.676;9.034;2023-07-20T00:05:37;3.37;;;2.50;;
944;SDS011;459;48.676;9.034;2023-07-20T00:08:02;4.60;;;2.17;;
944;SDS011;459;48.676;9.034;2023-07-20T00:10:28;3.37;;;2.53;;
944;SDS011;459;48.676;9.034;2023-07-20T00:12:53;3.50;;;2.50;;
944;SDS011;459;48.676;9.034;2023-07-20T00:15:18;4.17;;;2.73;;
944;SDS011;459;48.676;9.034;2023-07-20T00:17:43;3.47;;;2.50;;
944;SDS011;459;48.676;9.034;2023-07-20T00:20:10;3.20;;;2.70;;
944;SDS011;459;48.676;9.034;2023-07-20T00:22:35;3.07;;;2.40;;
944;SDS011;459;48.676;9.034;2023-07-20T00:25:00;5.60;;;2.70;;
944;SDS011;459;48.676;9.034;2023-07-20T00:27:25;3.10;;;2.80;;
944;SDS011;459;48.676;9.034;2023-07-20T00:29:51;3.10;;;2.80;;
944;SDS011;459;48.676;9.034;2023-07-20T00:32:16;3.90;;;2.93;;
944;SDS011;459;48.676;9.034;2023-07-20T00:34:41;5.50;;;3.17;;
944;SDS011;459;48.676;9.034;2023-07-20T00:37:06;2.50;;;2.30;;
944;SDS011;459;48.676;9.034;2023-07-20T00:39:32;3.03;;;2.10;;
944;SDS011;459;48.676;9.034;2023-07-20T00:41:57;4.10;;;2.53;;
944;SDS011;459;48.676;9.034;2023-07-20T00:44:22;4.40;;;2.20;;
944;SDS011;459;48.676;9.034;2023-07-20T00:46:47;2.33;;;2.10;;
944;SDS011;459;48.676;9.034;2023-07-20T00:49:13;3.63;;;2.63;;
944;SDS011;459;48.676;9.034;2023-07-20T00:51:38;3.13;;;2.60;;
944;SDS011;459;48.676;9.034;2023-07-20T00:54:04;2.83;;;2.20;;
944;SDS011;459;48.676;9.034;2023-07-20T00:56:29;3.47;;;2.67;;
944;SDS011;459;48.676;9.034;2023-07-20T00:58:54;5.07;;;2.50;;
944;SDS011;459;48.676;9.034;2023-07-20T01:01:20;3.30;;;2.73;;
944;SDS011;459;48.676;9.034;2023-07-20T01:03:45;4.57;;;3.03;;
944;SDS011;459;48.676;9.034;2023-07-20T01:06:24;4.20;;;2.33;;
944;SDS011;459;48.676;9.034;2023-07-20T01:08:53;5.00;;;2.47;;
944;SDS011;459;48.676;9.034;2023-07-20T01:11:38;3.47;;;2.70;;
944;SDS011;459;48.676;9.034;2023-07-20T01:14:03;8.43;;;3.00;;
944;SDS011;459;48.676;9.034;2023-07-20T01:16:29;3.30;;;2.40;;
944;SDS011;459;48.676;9.034;2023-07-20T01:18:54;3.13;;;2.63;;
944;SDS011;459;48.676;9.034;2023-07-20T01:21:27;5.73;;;3.07;;
944;SDS011;459;48.676;9.034;2023-07-20T01:24:13;2.80;;;2.33;;
944;SDS011;459;48.676;9.034;2023-07-20T01:29:17;4.90;;;2.77;;
944;SDS011;459;48.676;9.034;2023-07-20T01:31:47;3.33;;;2.83;;
944;SDS011;459;48.676;9.034;2023-07-20T01:34:14;3.50;;;2.40;;
944;SDS011;459;48.676;9.034;2023-07-20T01:36:40;2.50;;;2.30;;
944;SDS011;459;48.676;9.034;2023-07-20T01:39:06;2.60;;;2.40;;
944;SDS011;459;48.676;9.034;2023-07-20T01:41:33;5.70;;;3.03;;
944;SDS011;459;48.676;9.034;2023-07-20T01:43:58;3.30;;;3.00;;
944;SDS011;459;48.676;9.034;2023-07-20T01:46:27;6.03;;;3.23;;
944;SDS011;459;48.676;9.034;2023-07-20T01:48:52;3.70;;;2.43;;
944;SDS011;459;48.676;9.034;2023-07-20T01:51:18;2.90;;;2.63;;
944;SDS011;459;48.676;9.034;2023-07-20T01:53:43;6.60;;;2.60;;
944;SDS011;459;48.676;9.034;2023-07-20T01:56:08;2.90;;;2.33;;
944;SDS011;459;48.676;9.034;2023-07-20T01:58:33;2.90;;;2.60;;
944;SDS011;459;48.676;9.034;2023-07-20T02:00:59;3.20;;;2.60;;
944;SDS011;459;48.676;9.034;2023-07-20T02:03:26;2.83;;;2.53;;
944;SDS011;459;48.676;9.034;2023-07-20T02:05:51;3.53;;;3.00;;
944;SDS011;459;48.676;9.034;2023-07-20T02:08:17;4.43;;;2.23;;
944;SDS011;459;48.676;9.034;2023-07-20T02:10:44;2.53;;;2.23;;
944;SDS011;459;48.676;9.034;2023-07-20T02:13:09;2.83;;;2.27;;
944;SDS011;459;48.676;9.034;2023-07-20T02:15:35;5.80;;;3.07;;
944;SDS011;459;48.676;9.034;2023-07-20T02:18:00;3.60;;;2.93;;
944;SDS011;459;48.676;9.034;2023-07-20T02:20:25;3.53;;;2.43;;
944;SDS011;459;48.676;9.034;2023-07-20T02:22:50;2.70;;;2.50;;
944;SDS011;459;48.676;9.034;2023-07-20T02:25:15;3.70;;;2.23;;
944;SDS011;459;48.676;9.034;2023-07-20T02:27:41;3.63;;;2.63;;
944;SDS011;459;48.676;9.034;2023-07-20T02:30:06;3.67;;;2.27;;
944;SDS011;459;48.676;9.034;2023-07-20T02:32:31;3.20;;;2.50;;
944;SDS011;459;48.676;9.034;2023-07-20T02:34:57;3.40;;;3.10;;
944;SDS011;459;48.676;9.034;2023-07-20T02:37:22;3.73;;;2.97;;
944;SDS011;459;48.676;9.034;2023-07-20T02:39:47;3.00;;;2.70;;
944;SDS011;459;48.676;9.034;2023-07-20T02:42:13;3.97;;;2.50;;
944;SDS011;459;48.676;9.034;2023-07-20T02:44:38;4.47;;;2.67;;
944;SDS011;459;48.676;9.034;2023-07-20T02:47:03;4.30;;;2.50;;
944;SDS011;459;48.676;9.034;2023-07-20T02:49:28;3.90;;;2.83;;
944;SDS011;459;48.676;9.034;2023-07-20T02:51:53;3.67;;;3.30;;
944;SDS011;459;48.676;9.034;2023-07-20T02:54:19;4.30;;;3.70;;
944;SDS011;459;48.676;9.034;2023-07-20T02:56:44;4.20;;;2.43;;
944;SDS011;459;48.676;9.034;2023-07-20T02:59:09;3.50;;;2.80;;
944;SDS011;459;48.676;9.034;2023-07-20T03:01:35;3.07;;;2.77;;
944;SDS011;459;48.676;9.034;2023-07-20T03:04:00;3.97;;;2.97;;
944;SDS011;459;48.676;9.034;2023-07-20T03:06:25;2.50;;;2.30;;
944;SDS011;459;48.676;9.034;2023-07-20T03:08:50;6.70;;;2.83;;
944;SDS011;459;48.676;9.034;2023-07-20T03:11:17;3.50;;;3.00;;
944;SDS011;459;48.676;9.034;2023-07-20T03:13:43;3.03;;;2.73;;
944;SDS011;459;48.676;9.034;2023-07-20T03:16:08;4.73;;;3.00;;
944;SDS011;459;48.676;9.034;2023-07-20T03:18:36;3.03;;;2.73;;
944;SDS011;459;48.676;9.034;2023-07-20T03:21:01;3.87;;;2.53;;
944;SDS011;459;48.676;9.034;2023-07-20T03:23:26;2.67;;;2.30;;
944;SDS011;459;48.676;9.034;2023-07-20T03:25:52;2.70;;;2.50;;
944;SDS011;459;48.676;9.034;2023-07-20T03:28:20;3.97;;;2.60;;
944;SDS011;459;48.676;9.034;2023-07-20T03:30:45;3.10;;;2.80;;
944;SDS011;459;48.676;9.034;2023-07-20T03:33:10;6.10;;;2.67;;
944;SDS011;459;48.676;9.034;2023-07-20T03:35:35;3.00;;;2.70;;
944;SDS011;459;48.676;9.034;2023-07-20T03:38:00;4.10;;;3.23;;
944;SDS011;459;48.676;9.034;2023-07-20T03:40:26;3.90;;;3.50;;
944;SDS011;459;48.676;9.034;2023-07-20T03:42:51;2.50;;;2.30;;
944;SDS011;459;48.676;9.034;2023-07-20T03:45:16;3.40;;;3.00;;
944;SDS011;459;48.676;9.034;2023-07-20T03:47:41;3.40;;;3.10;;
944;SDS011;459;48.676;9.034;2023-07-20T03:50:07;3.83;;;3.37;;
944;SDS011;459;48.676;9.034;2023-07-20T03:52:34;2.60;;;2.23;;
944;SDS011;459;48.676;9.034;2023-07-20T03:55:00;3.27;;;2.90;;
944;SDS011;459;48.676;9.034;2023-07-20T03:57:25;3.90;;;1.90;;
944;SDS011;459;48.676;9.034;2023-07-20T03:59:50;4.20;;;2.40;;
944;SDS011;459;48.676;9.034;2023-07-20T04:02:15;8.40;;;2.67;;
944;SDS011;459;48.676;9.034;2023-07-20T04:04:40;3.27;;;2.50;;
944;SDS011;459;48.676;9.034;2023-07-20T04:07:06;3.13;;;2.83;;
944;SDS011;459;48.676;9.034;2023-07-20T04:09:32;3.10;;;2.80;;
944;SDS011;459;48.676;9.034;2023-07-20T04:11:58;3.27;;;2.80;;
944;SDS011;459;48.676;9.034;2023-07-20T04:14:23;4.27;;;3.30;;
944;SDS011;459;48.676;9.034;2023-07-20T04:16:48;2.67;;;2.47;;
944;SDS011;459;48.676;9.034;2023-07-20T04:19:13;3.07;;;2.63;;
944;SDS011;459;48.676;9.034;2023-07-20T04:21:39;3.30;;;2.63;;
944;SDS011;459;48.676;9.034;2023-07-20T04:24:05;4.50;;;2.87;;
944;SDS011;459;48.676;9.034;2023-07-20T04:26:30;3.77;;;2.37;;
944;SDS011;459;48.676;9.034;2023-07-20T04:28:56;3.73;;;3.00;;
944;SDS011;459;48.676;9.034;2023-07-20T04:31:21;4.40;;;2.90;;
944;SDS011;459;48.676;9.034;2023-07-20T04:33:46;3.03;;;2.77;;
944;SDS011;459;48.676;9.034;2023-07-20T04:36:11;3.83;;;2.67;;
944;SDS011;459;48.676;9.034;2023-07-20T04:38:38;3.20;;;2.50;;
944;SDS011;459;48.676;9.034;2023-07-20T04:41:03;2.67;;;2.43;;
944;SDS011;459;48.676;9.034;2023-07-20T04:43:29;3.03;;;2.60;;
944;SDS011;459;48.676;9.034;2023-07-20T04:45:54;3.93;;;2.50;;
944;SDS011;459;48.676;9.034;2023-07-20T04:48:19;6.17;;;3.03;;
944;SDS011;459;48.676;9.034;2023-07-20T04:50:45;2.43;;;2.20;;
944;SDS011;459;48.676;9.034;2023-07-20T04:53:10;2.63;;;2.43;;
944;SDS011;459;48.676;9.034;2023-07-20T04:55:40;2.53;;;2.00;;
944;SDS011;459;48.676;9.034;2023-07-20T04:58:05;4.93;;;2.93;;
944;SDS011;459;48.676;9.034;2023-07-20T05:00:32;2.70;;;2.50;;
944;SDS011;459;48.676;9.034;2023-07-20T05:02:57;3.83;;;2.43;;
944;SDS011;459;48.676;9.034;2023-07-20T05:05:22;2.53;;;2.33;;
944;SDS011;459;48.676;9.034;2023-07-20T05:07:48;2.87;;;2.60;;
944;SDS011;459;48.676;9.034;2023-07-20T05:10:13;3.90;;;2.90;;
944;SDS011;459;48.676;9.034;2023-07-20T05:12:38;3.83;;;3.40;;
944;SDS011;459;48.676;9.034;2023-07-20T05:15:03;4.90;;;3.03;;
944;SDS011;459;48.676;9.034;2023-07-20T05:17:29;3.33;;;2.70;;
944;SDS011;459;48.676;9.034;2023-07-20T05:19:54;3.30;;;2.40;;
944;SDS011;459;48.676;9.034;2023-07-20T05:22:19;3.90;;;3.10;;
944;SDS011;459;48.676;9.034;2023-07-20T05:24:44;3.00;;;2.47;;
944;SDS011;459;48.676;9.034;2023-07-20T05:27:09;4.27;;;2.60;;
944;SDS011;459;48.676;9.034;2023-07-20T05:29:35;2.80;;;2.60;;
944;SDS011;459;48.676;9.034;2023-07-20T05:32:00;2.83;;;2.63;;
944;SDS011;459;48.676;9.034;2023-07-20T05:34:25;3.00;;;2.70;;
944;SDS011;459;48.676;9.034;2023-07-20T05:36:50;2.70;;;2.40;;
944;SDS011;459;48.676;9.034;2023-07-20T05:39:16;4.93;;;2.90;;
944;SDS011;459;48.676;9.034;2023-07-20T05:41:42;4.17;;;2.90;;
944;SDS011;459;48.676;9.034;2023-07-20T05:44:07;2.77;;;2.53;;
944;SDS011;459;48.676;9.034;2023-07-20T05:46:32;3.40;;;2.43;;
944;SDS011;459;48.676;9.034;2023-07-20T05:48:57;3.20;;;2.73;;
944;SDS011;459;48.676;9.034;2023-07-20T05:51:22;3.67;;;2.90;;
944;SDS011;459;48.676;9.034;2023-07-20T05:53:47;2.93;;;2.43;;
944;SDS011;459;48.676;9.034;2023-07-20T05:56:13;3.80;;;2.20;;
944;SDS011;459;48.676;9.034;2023-07-20T05:58:39;4.00;;;2.77;;
944;SDS011;459;48.676;9.034;2023-07-20T06:01:04;3.03;;;2.57;;
944;SDS011;459;48.676;9.034;2023-07-20T06:03:31;3.90;;;2.20;;
944;SDS011;459;48.676;9.034;2023-07-20T06:06:02;4.90;;;2.07;;
944;SDS011;459;48.676;9.034;2023-07-20T06:08:29;3.13;;;2.70;;
944;SDS011;459;48.676;9.034;2023-07-20T06:10:54;3.43;;;3.13;;
944;SDS011;459;48.676;9.034;2023-07-20T06:13:20;3.70;;;2.90;;
944;SDS011;459;48.676;9.034;2023-07-20T06:15:45;2.23;;;2.03;;
944;SDS011;459;48.676;9.034;2023-07-20T06:18:10;2.57;;;2.23;;
944;SDS011;459;48.676;9.034;2023-07-20T06:20:35;2.70;;;2.20;;
944;SDS011;459;48.676;9.034;2023-07-20T06:23:00;3.80;;;2.50;;
944;SDS011;459;48.676;9.034;2023-07-20T06:25:26;4.30;;;2.83;;
944;SDS011;459;48.676;9.034;2023-07-20T06:27:51;4.53;;;3.57;;
944;SDS011;459;48.676;9.034;2023-07-20T06:30:17;3.53;;;2.60;;
944;SDS011;459;48.676;9.034;2023-07-20T06:32:42;4.37;;;3.07;;
944;SDS011;459;48.676;9.034;2023-07-20T06:35:08;3.40;;;2.60;;
944;SDS011;459;48.676;9.034;2023-07-20T06:37:33;3.23;;;2.77;;
944;SDS011;459;48.676;9.034;2023-07-20T06:39:58;2.97;;;2.40;;
944;SDS011;459;48.676;9.034;2023-07-20T06:42:23;3.03;;;2.60;;
944;SDS011;459;48.676;9.034;2023-07-20T06:44:49;3.00;;;2.60;;
944;SDS011;459;48.676;9.034;2023-07-20T06:47:14;3.87;;;2.47;;
944;SDS011;459;48.676;9.034;2023-07-20T06:49:39;3.07;;;2.40;;
944;SDS011;459;48.676;9.034;2023-07-20T06:52:04;4.43;;;2.37;;
944;SDS011;459;48.676;9.034;2023-07-20T06:54:29;3.10;;;2.57;;
944;SDS011;459;48.676;9.034;2023-07-20T06:56:55;5.20;;;2.43;;
944;SDS011;459;48.676;9.034;2023-07-20T06:59:20;5.27;;;2.60;;
944;SDS011;459;48.676;9.034;2023-07-20T07:01:46;2.57;;;2.37;;
944;SDS011;459;48.676;9.034;2023-07-20T07:04:11;2.83;;;2.60;;
944;SDS011;459;48.676;9.034;2023-07-20T07:06:36;2.97;;;2.60;;
944;SDS011;459;48.676;9.034;2023-07-20T07:09:02;3.30;;;3.00;;
944;SDS011;459;48.676;9.034;2023-07-20T07:11:28;2.83;;;2.53;;
944;SDS011;459;48.676;9.034;2023-07-20T07:13:53;2.43;;;2.23;;
944;SDS011;459;48.676;9.034;2023-07-20T07:16:19;3.10;;;2.10;;
944;SDS011;459;48.676;9.034;2023-07-20T07:18:44;19.57;;;3.90;;
944;SDS011;459;48.676;9.034;2023-07-20T07:21:10;6.93;;;3.40;;
944;SDS011;459;48.676;9.034;2023-07-20T07:23:35;4.20;;;2.73;;
944;SDS011;459;48.676;9.034;2023-07-20T07:26:00;5.40;;;2.87;;
944;SDS011;459;48.676;9.034;2023-07-20T07:28:25;3.03;;;2.33;;
944;SDS011;459;48.676;9.034;2023-07-20T07:30:50;4.00;;;2.70;;
944;SDS011;459;48.676;9.034;2023-07-20T07:33:15;2.87;;;2.67;;
944;SDS011;459;48.676;9.034;2023-07-20T07:35:41;3.23;;;2.40;;
944;SDS011;459;48.676;9.034;2023-07-20T07:38:06;5.77;;;3.30;;
944;SDS011;459;48.676;9.034;2023-07-20T07:40:31;3.80;;;2.80;;
944;SDS011;459;48.676;9.034;2023-07-20T07:42:56;3.40;;;3.07;;
944;SDS011;459;48.676;9.034;2023-07-20T07:45:22;3.40;;;3.03;;
944;SDS011;459;48.676;9.034;2023-07-20T07:47:47;2.80;;;2.40;;
944;SDS011;459;48.676;9.034;2023-07-20T07:50:12;4.60;;;3.03;;
944;SDS011;459;48.676;9.034;2023-07-20T07:52:37;3.60;;;3.30;;
944;SDS011;459;48.676;9.034;2023-07-20T07:55:02;5.00;;;3.20;;
944;SDS011;459;48.676;9.034;2023-07-20T07:57:29;3.43;;;2.53;;
944;SDS011;459;48.676;9.034;2023-07-20T07:59:54;2.63;;;2.43;;
944;SDS011;459;48.676;9.034;2023-07-20T08:02:19;3.10;;;2.80;;
944;SDS011;459;48.676;9.034;2023-07-20T08:04:44;4.13;;;2.50;;
944;SDS011;459;48.676;9.034;2023-07-20T08:07:09;2.90;;;2.60;;
944;SDS011;459;48.676;9.034;2023-07-20T08:09:35;5.00;;;2.70;;
944;SDS011;459;48.676;9.034;2023-07-20T08:12:00;7.03;;;3.60;;
944;SDS011;459;48.676;9.034;2023-07-20T08:14:25;3.53;;;2.80;;
944;SDS011;459;48.676;9.034;2023-07-20T08:16:50;3.00;;;2.70;;
944;SDS011;459;48.676;9.034;2023-07-20T08:19:15;3.00;;;2.70;;
944;SDS011;459;48.676;9.034;2023-07-20T08:21:41;2.90;;;2.60;;
944;SDS011;459;48.676;9.034;2023-07-20T08:24:06;6.20;;;2.40;;
944;SDS011;459;48.676;9.034;2023-07-20T08:26:31;4.90;;;3.10;;
944;SDS011;459;48.676;9.034;2023-07-20T08:28:56;4.33;;;2.50;;
944;SDS011;459;48.676;9.034;2023-07-20T08:31:21;3.20;;;2.50;;
944;SDS011;459;48.676;9.034;2023-07-20T08:33:47;3.23;;;2.00;;
944;SDS011;459;48.676;9.034;2023-07-20T08:36:12;3.00;;;2.67;;
944;SDS011;459;48.676;9.034;2023-07-20T08:38:37;3.50;;;2.27;;
944;SDS011;459;48.676;9.034;2023-07-20T08:41:02;3.63;;;2.77;;
944;SDS011;459;48.676;9.034;2023-07-20T08:43:27;5.03;;;3.47;;
944;SDS011;459;48.676;9.034;2023-07-20T08:45:56;2.43;;;2.20;;
944;SDS011;459;48.676;9.034;2023-07-20T08:48:21;2.73;;;2.53;;
944;SDS011;459;48.676;9.034;2023-07-20T08:50:48;2.87;;;2.67;;
944;SDS011;459;48.676;9.034;2023-07-20T08:53:14;2.33;;;2.13;;
944;SDS011;459;48.676;9.034;2023-07-20T08:55:39;2.50;;;2.30;;
944;SDS011;459;48.676;9.034;2023-07-20T08:58:05;2.80;;;2.60;;
944;SDS011;459;48.676;9.034;2023-07-20T09:00:33;4.73;;;3.20;;
944;SDS011;459;48.676;9.034;2023-07-20T09:02:59;2.33;;;2.00;;
944;SDS011;459;48.676;9.034;2023-07-20T09:05:25;2.90;;;2.70;;
944;SDS011;459;48.676;9.034;2023-07-20T09:07:51;4.00;;;2.93;;
944;SDS011;459;48.676;9.034;2023-07-20T09:10:17;2.90;;;2.60;;
944;SDS011;459;48.676;9.034;2023-07-20T09:12:43;2.97;;;1.80;;
944;SDS011;459;48.676;9.034;2023-07-20T09:15:09;2.93;;;2.63;;
944;SDS011;459;48.676;9.034;2023-07-20T09:17:34;3.07;;;2.60;;
944;SDS011;459;48.676;9.034;2023-07-20T09:20:03;2.37;;;2.17;;
944;SDS011;459;48.676;9.034;2023-07-20T09:22:34;4.80;;;2.73;;
944;SDS011;459;48.676;9.034;2023-07-20T09:24:59;2.43;;;2.23;;
944;SDS011;459;48.676;9.034;2023-07-20T09:27:37;3.53;;;3.00;;
944;SDS011;459;48.676;9.034;2023-07-20T09:30:03;3.40;;;2.10;;
944;SDS011;459;48.676;9.034;2023-07-20T09:32:29;2.90;;;2.10;;
944;SDS011;459;48.676;9.034;2023-07-20T09:34:54;2.20;;;2.00;;
944;SDS011;459;48.676;9.034;2023-07-20T09:37:22;2.80;;;2.33;;
944;SDS011;459;48.676;9.034;2023-07-20T09:39:48;2.33;;;2.07;;
944;SDS011;459;48.676;9.034;2023-07-20T09:42:14;2.27;;;1.77;;
944;SDS011;459;48.676;9.034;2023-07-20T09:44:40;2.50;;;1.97;;
944;SDS011;459;48.676;9.034;2023-07-20T09:47:06;2.53;;;1.90;;
944;SDS011;459;48.676;9.034;2023-07-20T09:49:31;2.43;;;1.90;;
944;SDS011;459;48.676;9.034;2023-07-20T09:51:59;2.20;;;1.77;;
944;SDS011;459;48.676;9.034;2023-07-20T09:54:27;2.10;;;1.90;;
944;SDS011;459;48.676;9.034;2023-07-20T09:56:53;2.30;;;2.10;;
944;SDS011;459;48.676;9.034;2023-07-20T09:59:19;2.50;;;2.30;;
944;SDS011;459;48.676;9.034;2023-07-20T10:01:44;3.00;;;1.60;;
944;SDS011;459;48.676;9.034;2023-07-20T10:04:10;4.37;;;2.30;;
944;SDS011;459;48.676;9.034;2023-07-20T10:06:36;3.20;;;2.13;;
944;SDS011;459;48.676;9.034;2023-07-20T10:09:04;2.33;;;1.93;;
944;SDS011;459;48.676;9.034;2023-07-20T10:11:33;2.50;;;1.40;;
944;SDS011;459;48.676;9.034;2023-07-20T10:13:59;3.93;;;2.07;;
944;SDS011;459;48.676;9.034;2023-07-20T10:16:28;2.10;;;1.80;;
944;SDS011;459;48.676;9.034;2023-07-20T10:21:22;3.73;;;2.10;;
944;SDS011;459;48.676;9.034;2023-07-20T10:23:48;3.00;;;1.87;;
944;SDS011;459;48.676;9.034;2023-07-20T10:26:14;4.53;;;1.90;;
944;SDS011;459;48.676;9.034;2023-07-20T10:28:39;3.07;;;2.07;;
944;SDS011;459;48.676;9.034;2023-07-20T10:31:05;3.80;;;1.90;;
944;SDS011;459;48.676;9.034;2023-07-20T10:33:32;2.40;;;2.10;;
944;SDS011;459;48.676;9.034;2023-07-20T10:36:00;3.40;;;3.10;;
944;SDS011;459;48.676;9.034;2023-07-20T10:41:33;2.20;;;1.53;;
944;SDS011;459;48.676;9.034;2023-07-20T10:44:00;1.77;;;1.57;;
944;SDS011;459;48.676;9.034;2023-07-20T10:46:41;2.40;;;1.70;;
944;SDS011;459;48.676;9.034;2023-07-20T10:49:08;3.07;;;2.40;;
944;SDS011;459;48.676;9.034;2023-07-20T10:54:07;2.40;;;1.70;;
944;SDS011;459;48.676;9.034;2023-07-20T10:56:32;3.20;;;1.73;;
944;SDS011;459;48.676;9.034;2023-07-20T10:58:58;2.63;;;2.03;;
944;SDS011;459;48.676;9.034;2023-07-20T11:01:27;2.57;;;2.00;;
944;SDS011;459;48.676;9.034;2023-07-20T11:03:56;2.10;;;1.90;;
944;SDS011;459;48.676;9.034;2023-07-20T11:09:04;2.23;;;1.77;;
944;SDS011;459;48.676;9.034;2023-07-20T11:11:30;3.50;;;2.10;;
944;SDS011;459;48.676;9.034;2023-07-20T11:13:56;2.00;;;1.80;;
944;SDS011;459;48.676;9.034;2023-07-20T11:16:40;2.03;;;1.53;;
944;SDS011;459;48.676;9.034;2023-07-20T11:19:12;2.10;;;1.30;;
944;SDS011;459;48.676;9.034;2023-07-20T11:21:42;2.13;;;1.50;;
944;SDS011;459;48.676;9.034;2023-07-20T11:24:07;2.57;;;1.87;;
944;SDS011;459;48.676;9.034;2023-07-20T11:26:40;4.63;;;1.70;;
944;SDS011;459;48.676;9.034;2023-07-20T11:29:06;3.83;;;1.90;;
944;SDS011;459;48.676;9.034;2023-07-20T11:31:34;1.60;;;1.43;;
944;SDS011;459;48.676;9.034;2023-07-20T11:33:59;1.93;;;1.50;;
944;SDS011;459;48.676;9.034;2023-07-20T11:36:25;3.60;;;2.67;;
944;SDS011;459;48.676;9.034;2023-07-20T11:38:50;2.07;;;1.87;;
944;SDS011;459;48.676;9.034;2023-07-20T11:41:16;2.13;;;1.33;;
944;SDS011;459;48.676;9.034;2023-07-20T11:43:41;2.03;;;1.80;;
944;SDS011;459;48.676;9.034;2023-07-20T11:46:07;2.33;;;1.67;;
944;SDS011;459;48.676;9.034;2023-07-20T11:48:32;2.27;;;1.77;;
944;SDS011;459;48.676;9.034;2023-07-20T11:50:57;1.60;;;1.47;;
944;SDS011;459;48.676;9.034;2023-07-20T11:53:24;1.80;;;1.60;;
944;SDS011;459;48.676;9.034;2023-07-20T11:55:49;2.70;;;1.80;;
944;SDS011;459;48.676;9.034;2023-07-20T11:58:14;2.37;;;1.80;;
944;SDS011;459;48.676;9.034;2023-07-20T12:00:42;2.07;;;1.47;;
944;SDS011;459;48.676;9.034;2023-07-20T12:03:09;2.13;;;1.60;;
944;SDS011;459;48.676;9.034;2023-07-20T12:05:35;2.23;;;1.70;;
944;SDS011;459;48.676;9.034;2023-07-20T12:08:01;1.87;;;1.63;;
944;SDS011;459;48.676;9.034;2023-07-20T12:10:27;2.07;;;1.50;;
944;SDS011;459;48.676;9.034;2023-07-20T12:12:53;2.73;;;1.43;;
944;SDS011;459;48.676;9.034;2023-07-20T12:17:49;1.90;;;1.60;;
944;SDS011;459;48.676;9.034;2023-07-20T12:20:24;1.80;;;1.40;;
944;SDS011;459;48.676;9.034;2023-07-20T12:22:49;2.50;;;1.70;;
944;SDS011;459;48.676;9.034;2023-07-20T12:25:14;2.80;;;1.50;;
944;SDS011;459;48.676;9.034;2023-07-20T12:27:40;1.90;;;1.60;;
944;SDS011;459;48.676;9.034;2023-07-20T12:30:06;2.00;;;1.60;;
944;SDS011;459;48.676;9.034;2023-07-20T12:32:32;1.70;;;1.60;;
944;SDS011;459;48.676;9.034;2023-07-20T12:34:57;2.10;;;1.47;;
944;SDS011;459;48.676;9.034;2023-07-20T12:37:25;2.30;;;1.50;;
944;SDS011;459;48.676;9.034;2023-07-20T12:39:50;2.47;;;1.90;;
944;SDS011;459;48.676;9.034;2023-07-20T12:42:15;1.43;;;1.30;;
944;SDS011;459;48.676;9.034;2023-07-20T12:44:41;2.20;;;2.00;;
944;SDS011;459;48.676;9.034;2023-07-20T12:47:06;1.47;;;1.37;;
944;SDS011;459;48.676;9.034;2023-07-20T12:49:32;3.30;;;2.43;;
944;SDS011;459;48.676;9.034;2023-07-20T12:51:57;3.33;;;1.40;;
944;SDS011;459;48.676;9.034;2023-07-20T12:54:22;1.63;;;1.30;;
944;SDS011;459;48.676;9.034;2023-07-20T12:56:47;2.03;;;1.53;;
944;SDS011;459;48.676;9.034;2023-07-20T12:59:13;3.37;;;1.37;;
944;SDS011;459;48.676;9.034;2023-07-20T13:01:38;1.83;;;1.47;;
944;SDS011;459;48.676;9.034;2023-07-20T13:04:06;1.83;;;1.40;;
944;SDS011;459;48.676;9.034;2023-07-20T13:06:33;2.20;;;1.50;;
944;SDS011;459;48.676;9.034;2023-07-20T13:08:59;2.00;;;1.63;;
944;SDS011;459;48.676;9.034;2023-07-20T13:11:24;1.90;;;1.43;;
944;SDS011;459;48.676;9.034;2023-07-20T13:13:50;1.53;;;1.43;;
944;SDS011;459;48.676;9.034;2023-07-20T13:16:15;2.13;;;1.80;;
944;SDS011;459;48.676;9.034;2023-07-20T13:18:40;3.10;;;1.97;;
944;SDS011;459;48.676;9.034;2023-07-20T13:21:05;2.17;;;1.97;;
944;SDS011;459;48.676;9.034;2023-07-20T13:23:35;2.40;;;1.63;;
944;SDS011;459;48.676;9.034;2023-07-20T13:26:00;2.40;;;1.60;;
944;SDS011;459;48.676;9.034;2023-07-20T13:28:25;2.17;;;1.63;;
944;SDS011;459;48.676;9.034;2023-07-20T13:30:50;1.83;;;1.63;;
944;SDS011;459;48.676;9.034;2023-07-20T13:33:15;1.70;;;1.43;;
944;SDS011;459;48.676;9.034;2023-07-20T13:35:41;1.50;;;1.30;;
944;SDS011;459;48.676;9.034;2023-07-20T13:38:06;2.43;;;1.83;;
944;SDS011;459;48.676;9.034;2023-07-20T13:40:31;1.57;;;1.40;;
944;SDS011;459;48.676;9.034;2023-07-20T13:42:57;2.83;;;1.73;;
944;SDS011;459;48.676;9.034;2023-07-20T13:45:22;1.93;;;1.70;;
944;SDS011;459;48.676;9.034;2023-07-20T13:47:47;2.33;;;1.70;;
944;SDS011;459;48.676;9.034;2023-07-20T13:50:12;2.03;;;1.37;;
944;SDS011;459;48.676;9.034;2023-07-20T13:52:38;2.40;;;1.90;;
944;SDS011;459;48.676;9.034;2023-07-20T13:55:03;2.00;;;1.60;;
944;SDS011;459;48.676;9.034;2023-07-20T13:57:29;2.00;;;1.63;;
944;SDS011;459;48.676;9.034;2023-07-20T13:59:54;3.67;;;1.47;;
944;SDS011;459;48.676;9.034;2023-07-20T14:02:19;2.20;;;1.60;;
944;SDS011;459;48.676;9.034;2023-07-20T14:04:44;3.80;;;1.40;;
944;SDS011;459;48.676;9.034;2023-07-20T14:07:10;2.23;;;1.50;;
944;SDS011;459;48.676;9.034;2023-07-20T14:09:35;3.97;;;1.60;;
944;SDS011;459;48.676;9.034;2023-07-20T14:12:01;4.03;;;1.80;;
944;SDS011;459;48.676;9.034;2023-07-20T14:14:26;1.87;;;1.77;;
944;SDS011;459;48.676;9.034;2023-07-20T14:16:51;1.80;;;1.50;;
944;SDS011;459;48.676;9.034;2023-07-20T14:19:16;2.83;;;1.90;;
944;SDS011;459;48.676;9.034;2023-07-20T14:21:41;2.40;;;1.50;;
944;SDS011;459;48.676;9.034;2023-07-20T14:24:07;1.97;;;1.10;;
944;SDS011;459;48.676;9.034;2023-07-20T14:26:32;1.73;;;1.40;;
944;SDS011;459;48.676;9.034;2023-07-20T14:28:57;1.63;;;1.53;;
944;SDS011;459;48.676;9.034;2023-07-20T14:31:22;1.40;;;1.27;;
944;SDS011;459;48.676;9.034;2023-07-20T14:33:47;3.00;;;1.43;;
944;SDS011;459;48.676;9.034;2023-07-20T14:36:13;1.70;;;1.60;;
944;SDS011;459;48.676;9.034;2023-07-20T14:38:38;2.10;;;1.90;;
944;SDS011;459;48.676;9.034;2023-07-20T14:41:05;3.07;;;2.10;;
944;SDS011;459;48.676;9.034;2023-07-20T14:43:31;2.33;;;1.50;;
944;SDS011;459;48.676;9.034;2023-07-20T14:45:56;1.60;;;1.40;;
944;SDS011;459;48.676;9.034;2023-07-20T14:48:21;1.80;;;1.47;;
944;SDS011;459;48.676;9.034;2023-07-20T14:50:46;2.00;;;1.63;;
944;SDS011;459;48.676;9.034;2023-07-20T14:53:12;1.80;;;1.40;;
944;SDS011;459;48.676;9.034;2023-07-20T14:55:38;2.47;;;1.20;;
944;SDS011;459;48.676;9.034;2023-07-20T14:58:03;1.93;;;1.60;;
944;SDS011;459;48.676;9.034;2023-07-20T15:00:28;2.67;;;1.20;;
944;SDS011;459;48.676;9.034;2023-07-20T15:02:55;1.50;;;1.40;;
944;SDS011;459;48.676;9.034;2023-07-20T15:05:24;2.20;;;2.00;;
944;SDS011;459;48.676;9.034;2023-07-20T15:07:50;1.43;;;1.33;;
944;SDS011;459;48.676;9.034;2023-07-20T15:10:15;2.33;;;1.63;;
944;SDS011;459;48.676;9.034;2023-07-20T15:12:40;1.97;;;1.50;;
944;SDS011;459;48.676;9.034;2023-07-20T15:15:06;2.10;;;1.70;;
944;SDS011;459;48.676;9.034;2023-07-20T15:17:32;2.90;;;1.83;;
944;SDS011;459;48.676;9.034;2023-07-20T15:19:57;2.00;;;1.30;;
944;SDS011;459;48.676;9.034;2023-07-20T15:22:23;3.10;;;2.37;;
944;SDS011;459;48.676;9.034;2023-07-20T15:24:48;2.07;;;1.47;;
944;SDS011;459;48.676;9.034;2023-07-20T15:27:13;1.80;;;1.60;;
944;SDS011;459;48.676;9.034;2023-07-20T15:29:39;1.60;;;1.50;;
944;SDS011;459;48.676;9.034;2023-07-20T15:32:04;2.33;;;1.50;;
944;SDS011;459;48.676;9.034;2023-07-20T15:34:30;1.87;;;1.70;;
944;SDS011;459;48.676;9.034;2023-07-20T15:36:56;1.83;;;1.43;;
944;SDS011;459;48.676;9.034;2023-07-20T15:39:21;2.13;;;1.70;;
944;SDS011;459;48.676;9.034;2023-07-20T15:41:47;2.40;;;1.67;;
944;SDS011;459;48.676;9.034;2023-07-20T15:44:12;3.10;;;1.87;;
944;SDS011;459;48.676;9.034;2023-07-20T15:49:03;3.25;;;1.80;;
944;SDS011;459;48.676;9.034;2023-07-20T15:51:28;1.90;;;1.70;;
944;SDS011;459;48.676;9.034;2023-07-20T15:53:54;1.63;;;1.33;;